createdAt,value
2023-05-04T00:01:04.123Z,13.40
2023-05-04T00:03:32.106Z,13.30
2023-05-04T00:05:59.905Z,13.20
2023-05-04T00:08:27.598Z,13.20
2023-05-04T00:10:55.908Z,13.20
2023-05-04T00:13:23.641Z,13.10
2023-05-04T00:15:52.760Z,13.10
2023-05-04T00:18:20.647Z,13.10
2023-05-04T00:20:48.368Z,13.10
2023-05-04T00:23:16.092Z,13.00
2023-05-04T00:25:43.821Z,13.10
2023-05-04T00:28:11.535Z,13.00
2023-05-04T00:30:39.237Z,12.90
2023-05-04T00:33:08.471Z,12.90
2023-05-04T00:35:36.340Z,12.90
2023-05-04T00:38:04.587Z,12.90
2023-05-04T00:40:32.335Z,12.80
2023-05-04T00:43:00.080Z,12.80
2023-05-04T00:45:28.166Z,12.80
2023-05-04T00:47:56.089Z,12.70
2023-05-04T00:50:25.519Z,12.60
2023-05-04T00:52:54.082Z,12.60
2023-05-04T00:55:21.984Z,12.60
2023-05-04T00:57:50.066Z,12.50
2023-05-04T01:00:18.512Z,12.50
2023-05-04T01:02:46.250Z,12.50
2023-05-04T01:05:14.118Z,12.50
2023-05-04T01:07:52.937Z,12.40
2023-05-04T01:10:23.710Z,12.30
2023-05-04T01:12:53.107Z,12.20
2023-05-04T01:15:21.477Z,12.20
2023-05-04T01:17:49.367Z,12.10
2023-05-04T01:20:17.076Z,12.10
2023-05-04T01:22:46.310Z,12.10
2023-05-04T01:25:14.266Z,12.10
2023-05-04T01:27:47.091Z,12.20
2023-05-04T01:30:17.868Z,12.10
2023-05-04T01:32:46.192Z,12.10
2023-05-04T01:35:14.271Z,12.10
2023-05-04T01:37:42.219Z,12.10
2023-05-04T01:40:12.043Z,12.10
2023-05-04T01:42:39.814Z,12.10
2023-05-04T01:45:08.477Z,12.00
2023-05-04T01:47:36.312Z,11.90
2023-05-04T01:50:05.727Z,11.80
2023-05-04T01:52:33.647Z,11.80
2023-05-04T01:55:01.380Z,11.80
2023-05-04T01:57:30.491Z,11.80
2023-05-04T01:59:58.227Z,11.70
2023-05-04T02:02:25.938Z,11.70
2023-05-04T02:04:53.658Z,11.60
2023-05-04T02:07:21.649Z,11.70
2023-05-04T02:09:49.324Z,11.60
2023-05-04T02:12:17.019Z,11.60
2023-05-04T02:14:46.077Z,11.50
2023-05-04T02:17:17.774Z,11.50
2023-05-04T02:19:47.501Z,11.50
2023-05-04T02:22:15.192Z,11.50
2023-05-04T02:24:44.337Z,11.50
2023-05-04T02:27:12.040Z,11.40
2023-05-04T02:29:39.712Z,11.40
2023-05-04T02:32:08.773Z,11.40
2023-05-04T02:34:38.619Z,11.30
2023-05-04T02:37:07.553Z,11.30
2023-05-04T02:39:35.504Z,11.30
2023-05-04T02:42:03.219Z,11.30
2023-05-04T02:44:30.959Z,11.30
2023-05-04T02:46:58.618Z,11.30
2023-05-04T02:49:27.647Z,11.20
2023-05-04T02:51:55.370Z,11.20
2023-05-04T02:54:23.104Z,11.10
2023-05-04T02:56:50.861Z,11.10
2023-05-04T02:59:18.539Z,11.00
2023-05-04T03:01:46.374Z,11.00
2023-05-04T03:04:14.221Z,11.00
2023-05-04T03:06:43.591Z,11.00
2023-05-04T03:09:11.337Z,10.90
2023-05-04T03:11:39.025Z,10.90
2023-05-04T03:14:07.381Z,11.00
2023-05-04T03:16:35.211Z,10.90
2023-05-04T03:19:03.038Z,10.80
2023-05-04T03:21:30.818Z,10.90
2023-05-04T03:23:59.982Z,10.90
2023-05-04T03:26:27.720Z,10.80
2023-05-04T03:28:55.430Z,10.80
2023-05-04T03:31:23.295Z,10.80
2023-05-04T03:33:51.270Z,10.80
2023-05-04T03:36:18.976Z,10.70
2023-05-04T03:38:46.653Z,10.70
2023-05-04T03:41:15.755Z,10.70
2023-05-04T03:43:43.526Z,10.70
2023-05-04T03:46:11.523Z,10.70
2023-05-04T03:48:39.460Z,10.60
2023-05-04T03:51:07.450Z,10.60
2023-05-04T03:53:35.639Z,10.60
2023-05-04T03:56:03.770Z,10.60
2023-05-04T03:58:32.929Z,10.50
2023-05-04T04:01:02.202Z,10.40
2023-05-04T04:03:30.906Z,10.40
2023-05-04T04:05:58.781Z,10.40
2023-05-04T04:08:26.800Z,10.40
2023-05-04T04:10:54.561Z,10.30
2023-05-04T04:13:22.567Z,10.30
2023-05-04T04:15:51.715Z,10.30
2023-05-04T04:18:19.493Z,10.30
2023-05-04T04:20:47.224Z,10.30
2023-05-04T04:23:18.510Z,10.30
2023-05-04T04:25:46.419Z,10.30
2023-05-04T04:28:14.240Z,10.30
2023-05-04T04:30:42.127Z,10.30
2023-05-04T04:33:11.254Z,10.30
2023-05-04T04:35:39.079Z,10.30
2023-05-04T04:38:07.002Z,10.30
2023-05-04T04:40:34.806Z,10.30
2023-05-04T04:43:04.007Z,10.30
2023-05-04T04:45:33.701Z,10.30
2023-05-04T04:48:02.183Z,10.20
2023-05-04T04:50:32.292Z,10.20
2023-05-04T04:53:01.141Z,10.20
2023-05-04T04:55:28.862Z,10.20
2023-05-04T04:57:59.715Z,10.20
2023-05-04T05:00:27.532Z,10.20
2023-05-04T05:02:55.698Z,10.20
2023-05-04T05:05:23.584Z,10.10
2023-05-04T05:07:53.005Z,10.20
2023-05-04T05:10:21.359Z,10.20
2023-05-04T05:12:50.863Z,10.30
2023-05-04T05:15:18.914Z,10.40
2023-05-04T05:17:46.828Z,10.40
2023-05-04T05:20:15.177Z,10.40
2023-05-04T05:22:43.041Z,10.50
2023-05-04T05:25:14.443Z,10.50
2023-05-04T05:27:42.217Z,10.50
2023-05-04T05:30:10.141Z,10.60
2023-05-04T05:32:38.057Z,10.60
2023-05-04T05:35:06.705Z,10.60
2023-05-04T05:37:34.442Z,10.70
2023-05-04T05:40:02.373Z,10.70
2023-05-04T05:42:31.568Z,10.80
2023-05-04T05:44:59.258Z,10.90
2023-05-04T05:47:27.030Z,11.00
2023-05-04T05:49:55.064Z,11.10
2023-05-04T05:52:22.799Z,11.10
2023-05-04T05:54:50.616Z,11.20
2023-05-04T05:57:18.339Z,11.30
2023-05-04T05:59:47.430Z,11.30
2023-05-04T06:02:15.583Z,11.40
2023-05-04T06:04:44.905Z,11.50
2023-05-04T06:07:13.570Z,11.60
2023-05-04T06:09:41.382Z,11.70
2023-05-04T06:12:13.385Z,11.80
2023-05-04T06:14:41.344Z,11.90
2023-05-04T06:17:10.498Z,12.00
2023-05-04T06:19:38.944Z,12.20
2023-05-04T06:22:06.736Z,12.30
2023-05-04T06:24:34.501Z,12.40
2023-05-04T06:27:02.441Z,12.50
2023-05-04T06:29:30.625Z,12.70
2023-05-04T06:31:58.380Z,12.80
2023-05-04T06:34:27.481Z,12.90
2023-05-04T06:36:55.236Z,13.00
2023-05-04T06:39:22.949Z,13.10
2023-05-04T06:41:50.946Z,13.20
2023-05-04T06:44:18.731Z,13.30
2023-05-04T06:46:46.469Z,13.40
2023-05-04T06:49:14.180Z,13.40
2023-05-04T06:51:43.312Z,13.50
2023-05-04T06:54:11.198Z,13.60
2023-05-04T06:56:39.646Z,13.70
2023-05-04T06:59:08.243Z,13.80
2023-05-04T07:01:36.040Z,13.80
2023-05-04T07:04:04.102Z,13.90
2023-05-04T07:06:32.250Z,14.00
2023-05-04T07:09:01.635Z,14.10
2023-05-04T07:11:30.952Z,14.20
2023-05-04T07:13:59.892Z,14.30
2023-05-04T07:16:27.749Z,14.40
2023-05-04T07:18:55.555Z,14.50
2023-05-04T07:21:28.383Z,14.60
2023-05-04T07:23:56.990Z,14.70
2023-05-04T07:26:26.063Z,14.80
2023-05-04T07:28:53.764Z,15.00
2023-05-04T07:31:21.596Z,15.10
2023-05-04T07:33:49.372Z,15.20
2023-05-04T07:36:17.075Z,15.40
2023-05-04T07:38:44.805Z,15.60
2023-05-04T07:41:12.557Z,15.80
2023-05-04T07:43:41.732Z,15.90
2023-05-04T07:46:09.522Z,16.10
2023-05-04T07:48:37.365Z,16.20
2023-05-04T07:51:05.209Z,16.40
2023-05-04T07:53:33.038Z,16.50
2023-05-04T07:56:08.667Z,16.70
2023-05-04T07:58:36.614Z,16.90
2023-05-04T08:01:05.807Z,17.10
2023-05-04T08:03:33.580Z,17.20
2023-05-04T08:06:02.063Z,17.20
2023-05-04T08:08:29.887Z,17.30
2023-05-04T08:11:08.065Z,17.50
2023-05-04T08:13:46.098Z,17.60
2023-05-04T08:16:15.255Z,17.80
2023-05-04T08:18:43.434Z,17.90
2023-05-04T08:21:11.223Z,18.00
2023-05-04T08:23:38.979Z,18.20
2023-05-04T08:26:06.707Z,18.30
2023-05-04T08:28:36.287Z,18.40
2023-05-04T08:31:04.119Z,18.40
2023-05-04T08:33:33.471Z,18.60
2023-05-04T08:36:01.261Z,18.70
2023-05-04T08:38:29.830Z,18.80
2023-05-04T08:40:57.731Z,18.90
2023-05-04T08:43:25.528Z,19.00
2023-05-04T08:45:53.723Z,19.10
2023-05-04T08:48:21.509Z,19.10
2023-05-04T08:50:50.670Z,19.20
2023-05-04T08:53:20.049Z,19.30
2023-05-04T08:55:48.404Z,19.30
2023-05-04T08:58:17.902Z,19.40
2023-05-04T09:00:46.401Z,19.40
2023-05-04T09:03:14.565Z,19.50
2023-05-04T09:05:42.974Z,19.60
2023-05-04T09:08:12.178Z,19.60
2023-05-04T09:10:40.168Z,19.70
2023-05-04T09:13:08.365Z,19.80
2023-05-04T09:15:36.302Z,19.80
2023-05-04T09:18:04.806Z,19.90
2023-05-04T09:20:43.350Z,20.00
2023-05-04T09:23:13.173Z,20.10
2023-05-04T09:25:48.242Z,20.20
2023-05-04T09:28:16.348Z,20.30
2023-05-04T09:30:44.426Z,20.40
2023-05-04T09:33:12.438Z,20.40
2023-05-04T09:35:41.214Z,20.40
2023-05-04T09:38:08.986Z,20.50
2023-05-04T09:40:40.775Z,20.50
2023-05-04T09:43:08.573Z,20.60
2023-05-04T09:45:39.712Z,20.60
2023-05-04T09:48:15.839Z,20.70
2023-05-04T09:50:48.573Z,20.70
2023-05-04T09:53:16.373Z,20.70
2023-05-04T09:55:46.695Z,20.70
2023-05-04T09:58:16.627Z,20.80
2023-05-04T10:00:44.693Z,20.90
2023-05-04T10:03:14.364Z,21.00
2023-05-04T10:05:42.284Z,21.10
2023-05-04T10:08:10.393Z,21.00
2023-05-04T10:10:39.717Z,21.10
2023-05-04T10:13:09.075Z,21.10
2023-05-04T10:15:38.886Z,21.20
2023-05-04T10:18:11.674Z,21.30
2023-05-04T10:20:56.890Z,21.30
2023-05-04T10:23:44.151Z,21.40
2023-05-04T10:26:31.882Z,21.40
2023-05-04T10:29:08.174Z,21.40
2023-05-04T10:31:40.120Z,21.50
2023-05-04T10:34:08.613Z,21.50
2023-05-04T10:36:37.010Z,21.50
2023-05-04T10:39:04.896Z,21.60
2023-05-04T10:41:32.698Z,21.60
2023-05-04T10:44:05.695Z,21.60
2023-05-04T10:46:33.477Z,21.70
2023-05-04T10:49:01.275Z,21.70
2023-05-04T10:51:38.883Z,21.70
2023-05-04T10:54:18.259Z,21.80
2023-05-04T10:56:45.998Z,21.80
2023-05-04T10:59:15.979Z,21.80
2023-05-04T11:01:44.596Z,21.80
2023-05-04T11:04:22.384Z,21.90
2023-05-04T11:07:00.203Z,22.00
2023-05-04T11:09:29.037Z,22.10
2023-05-04T11:11:57.285Z,22.10
2023-05-04T11:14:27.844Z,22.20
2023-05-04T11:17:19.767Z,22.20
2023-05-04T11:19:53.997Z,22.20
2023-05-04T11:22:21.889Z,22.40
2023-05-04T11:24:49.660Z,22.30
2023-05-04T11:27:28.478Z,22.30
2023-05-04T11:29:58.146Z,22.30
2023-05-04T11:32:36.103Z,22.30
2023-05-04T11:35:05.015Z,22.40
2023-05-04T11:37:39.130Z,22.30
2023-05-04T11:40:09.564Z,22.40
2023-05-04T11:42:38.174Z,22.40
2023-05-04T11:45:09.623Z,22.40
2023-05-04T11:47:37.747Z,22.40
2023-05-04T11:50:06.465Z,22.30
2023-05-04T11:52:36.246Z,22.20
2023-05-04T11:55:04.855Z,22.20
2023-05-04T11:57:32.715Z,22.20
2023-05-04T12:00:00.423Z,22.30
2023-05-04T12:02:29.510Z,22.30
2023-05-04T12:04:57.393Z,22.40
2023-05-04T12:07:25.718Z,22.40
2023-05-04T12:09:53.402Z,22.40
2023-05-04T12:12:21.506Z,22.50
2023-05-04T12:14:50.142Z,22.50
2023-05-04T12:17:17.962Z,22.50
2023-05-04T12:19:51.315Z,22.60
2023-05-04T12:22:19.377Z,22.60
2023-05-04T12:24:47.120Z,22.70
2023-05-04T12:27:15.102Z,22.80
2023-05-04T12:29:42.932Z,22.80
2023-05-04T12:32:10.696Z,22.80
2023-05-04T12:34:39.073Z,22.80
2023-05-04T12:37:08.111Z,22.80
2023-05-04T12:39:35.825Z,22.80
2023-05-04T12:42:04.211Z,22.80
2023-05-04T12:44:32.374Z,22.90
2023-05-04T12:47:00.409Z,22.90
2023-05-04T12:49:28.208Z,22.90
2023-05-04T12:51:56.014Z,22.90
2023-05-04T12:54:25.744Z,22.80
2023-05-04T12:56:53.506Z,22.80
2023-05-04T12:59:22.565Z,22.80
2023-05-04T13:01:50.493Z,22.80
2023-05-04T13:04:18.333Z,22.80
2023-05-04T13:06:48.420Z,22.80
2023-05-04T13:09:16.244Z,22.80
2023-05-04T13:11:45.642Z,22.80
2023-05-04T13:14:14.499Z,22.80
2023-05-04T13:16:42.220Z,22.80
2023-05-04T13:19:09.938Z,22.80
2023-05-04T13:21:37.753Z,22.80
2023-05-04T13:24:06.074Z,22.80
2023-05-04T13:26:33.819Z,22.70
2023-05-04T13:29:03.524Z,22.80
2023-05-04T13:31:31.419Z,22.80
2023-05-04T13:33:59.180Z,22.80
2023-05-04T13:36:26.948Z,22.80
2023-05-04T13:38:54.619Z,22.80
2023-05-04T13:41:23.063Z,22.90
2023-05-04T13:43:50.765Z,22.90
2023-05-04T13:46:19.843Z,22.90
2023-05-04T13:48:47.559Z,22.90
2023-05-04T13:51:15.288Z,22.80
2023-05-04T13:53:43.057Z,22.80
2023-05-04T13:56:10.764Z,22.70
2023-05-04T13:58:38.493Z,22.70
2023-05-04T14:01:06.555Z,22.70
2023-05-04T14:03:35.618Z,22.60
2023-05-04T14:06:03.728Z,22.60
2023-05-04T14:08:31.523Z,22.60
2023-05-04T14:10:59.540Z,22.60
2023-05-04T14:13:27.301Z,22.60
2023-05-04T14:15:55.475Z,22.60
2023-05-04T14:18:23.258Z,22.60
2023-05-04T14:20:52.489Z,22.60
2023-05-04T14:23:20.235Z,22.60
2023-05-04T14:25:50.849Z,22.60
2023-05-04T14:28:18.683Z,22.60
2023-05-04T14:30:46.418Z,22.60
2023-05-04T14:33:14.222Z,22.60
2023-05-04T14:35:43.670Z,22.60
2023-05-04T14:38:13.500Z,22.60
2023-05-04T14:40:41.354Z,22.60
2023-05-04T14:43:09.119Z,22.60
2023-05-04T14:45:36.890Z,22.60
2023-05-04T14:48:05.163Z,22.50
2023-05-04T14:50:33.088Z,22.50
2023-05-04T14:53:00.831Z,22.50
2023-05-04T14:55:31.373Z,22.50
2023-05-04T14:57:59.374Z,22.50
2023-05-04T15:00:27.127Z,22.60
2023-05-04T15:02:55.072Z,22.50
2023-05-04T15:05:23.027Z,22.50
2023-05-04T15:07:50.736Z,22.50
2023-05-04T15:10:18.625Z,22.50
2023-05-04T15:12:47.892Z,22.50
2023-05-04T15:15:15.794Z,22.50
2023-05-04T15:17:43.711Z,22.50
2023-05-04T15:20:12.097Z,22.50
2023-05-04T15:22:39.919Z,22.40
2023-05-04T15:25:07.905Z,22.40
2023-05-04T15:27:36.008Z,22.40
2023-05-04T15:30:05.863Z,22.40
2023-05-04T15:32:33.747Z,22.30
2023-05-04T15:35:05.955Z,22.30
2023-05-04T15:37:34.197Z,22.30
2023-05-04T15:40:02.526Z,22.30
2023-05-04T15:42:30.730Z,22.20
2023-05-04T15:44:58.437Z,22.20
2023-05-04T15:47:27.675Z,22.20
2023-05-04T15:49:55.449Z,22.20
2023-05-04T15:52:23.861Z,22.20
2023-05-04T15:54:51.642Z,22.10
2023-05-04T15:57:19.313Z,22.10
2023-05-04T15:59:47.685Z,22.10
2023-05-04T16:02:15.450Z,22.10
2023-05-04T16:04:44.474Z,22.10
2023-05-04T16:07:12.259Z,22.10
2023-05-04T16:09:39.977Z,22.10
2023-05-04T16:12:07.969Z,22.00
2023-05-04T16:14:36.003Z,22.10
2023-05-04T16:17:04.078Z,22.00
2023-05-04T16:19:31.950Z,22.10
2023-05-04T16:22:01.281Z,22.00
2023-05-04T16:24:29.083Z,22.00
2023-05-04T16:26:56.832Z,22.00
2023-05-04T16:29:24.528Z,22.00
2023-05-04T16:31:52.304Z,22.00
2023-05-04T16:34:20.033Z,22.00
2023-05-04T16:36:47.800Z,22.00
2023-05-04T16:39:18.745Z,22.00
2023-05-04T16:41:48.281Z,22.00
2023-05-04T16:44:16.237Z,21.90
2023-05-04T16:46:44.099Z,21.90
2023-05-04T16:49:14.494Z,21.90
2023-05-04T16:51:43.365Z,21.90
2023-05-04T16:54:11.065Z,21.90
2023-05-04T16:56:40.444Z,21.80
2023-05-04T16:59:08.168Z,21.80
2023-05-04T17:01:36.048Z,21.80
2023-05-04T17:04:04.030Z,21.80
2023-05-04T17:06:32.129Z,21.80
2023-05-04T17:08:59.980Z,21.70
2023-05-04T17:11:27.853Z,21.70
2023-05-04T17:13:57.125Z,21.70
2023-05-04T17:16:24.930Z,21.70
2023-05-04T17:18:52.693Z,21.70
2023-05-04T17:21:20.681Z,21.60
2023-05-04T17:23:48.340Z,21.60
2023-05-04T17:26:16.171Z,21.60
2023-05-04T17:28:43.881Z,21.50
2023-05-04T17:31:13.426Z,21.50
2023-05-04T17:33:41.202Z,21.50
2023-05-04T17:36:11.936Z,21.50
2023-05-04T17:38:39.940Z,21.50
2023-05-04T17:41:09.626Z,21.40
2023-05-04T17:43:37.691Z,21.40
2023-05-04T17:46:05.659Z,21.40
2023-05-04T17:48:36.322Z,21.40
2023-05-04T17:51:04.666Z,21.40
2023-05-04T17:53:32.475Z,21.30
2023-05-04T17:56:00.190Z,21.30
2023-05-04T17:58:27.922Z,21.20
2023-05-04T18:00:55.680Z,21.20
2023-05-04T18:03:23.526Z,21.20
2023-05-04T18:05:52.673Z,21.10
2023-05-04T18:08:20.461Z,21.10
2023-05-04T18:10:48.858Z,21.10
2023-05-04T18:13:16.686Z,21.00
2023-05-04T18:15:44.523Z,21.00
2023-05-04T18:18:12.320Z,21.00
2023-05-04T18:20:39.987Z,20.90
2023-05-04T18:23:09.091Z,20.90
2023-05-04T18:25:37.659Z,20.80
2023-05-04T18:28:07.010Z,20.80
2023-05-04T18:30:34.791Z,20.80
2023-05-04T18:33:02.584Z,20.70
2023-05-04T18:35:30.383Z,20.70
2023-05-04T18:37:58.110Z,20.70
2023-05-04T18:40:27.148Z,20.60
2023-05-04T18:42:54.869Z,20.60
2023-05-04T18:45:22.904Z,20.50
2023-05-04T18:47:50.691Z,20.50
2023-05-04T18:50:18.562Z,20.40
2023-05-04T18:52:47.210Z,20.40
2023-05-04T18:55:15.003Z,20.40
2023-05-04T18:57:44.236Z,20.40
2023-05-04T19:00:13.847Z,20.30
2023-05-04T19:02:41.584Z,20.30
2023-05-04T19:05:11.696Z,20.30
2023-05-04T19:07:40.732Z,20.20
2023-05-04T19:10:09.521Z,20.20
2023-05-04T19:12:37.548Z,20.20
2023-05-04T19:15:07.636Z,20.20
2023-05-04T19:17:35.476Z,20.10
2023-05-04T19:20:03.369Z,20.10
2023-05-04T19:22:31.179Z,20.10
2023-05-04T19:27:43.075Z,20.00
2023-05-04T19:30:14.060Z,20.00
2023-05-04T19:32:42.487Z,20.00
2023-05-04T19:35:11.094Z,19.90
2023-05-04T19:37:41.898Z,19.90
2023-05-04T19:40:11.344Z,19.90
2023-05-04T19:42:39.972Z,19.90
2023-05-04T19:45:09.466Z,19.90
2023-05-04T19:47:43.412Z,19.80
2023-05-04T19:50:11.614Z,19.80
2023-05-04T19:52:39.442Z,19.80
2023-05-04T19:55:07.765Z,19.80
2023-05-04T19:57:35.508Z,19.80
2023-05-04T20:00:03.606Z,19.70
2023-05-04T20:02:32.426Z,19.60
2023-05-04T20:05:01.603Z,19.60
2023-05-04T20:07:29.306Z,19.50
2023-05-04T20:09:57.097Z,19.40
2023-05-04T20:12:26.417Z,19.40
2023-05-04T20:14:54.137Z,19.30
2023-05-04T20:17:21.978Z,19.30
2023-05-04T20:19:49.888Z,19.20
2023-05-04T20:22:18.977Z,19.10
2023-05-04T20:24:46.959Z,19.10
2023-05-04T20:27:14.693Z,19.00
2023-05-04T20:29:42.567Z,19.00
2023-05-04T20:32:11.232Z,19.00
2023-05-04T20:34:39.715Z,18.90
2023-05-04T20:37:07.447Z,18.90
2023-05-04T20:39:36.506Z,18.80
2023-05-04T20:42:08.656Z,18.70
2023-05-04T20:44:36.381Z,18.60
2023-05-04T20:47:04.759Z,18.60
2023-05-04T20:49:32.539Z,18.50
2023-05-04T20:52:00.396Z,18.50
2023-05-04T20:54:28.293Z,18.40
2023-05-04T20:56:57.360Z,18.30
2023-05-04T20:59:25.109Z,18.30
2023-05-04T21:01:52.968Z,18.30
2023-05-04T21:04:20.896Z,18.20
2023-05-04T21:06:48.689Z,18.20
2023-05-04T21:09:16.411Z,18.20
2023-05-04T21:11:44.157Z,18.10
2023-05-04T21:14:13.197Z,18.10
2023-05-04T21:16:40.903Z,18.10
2023-05-04T21:19:08.612Z,18.00
2023-05-04T21:21:40.539Z,18.10
2023-05-04T21:24:11.131Z,18.00
2023-05-04T21:26:38.929Z,18.00
2023-05-04T21:29:06.638Z,18.00
2023-05-04T21:31:35.924Z,17.90
2023-05-04T21:34:03.750Z,17.90
2023-05-04T21:36:31.546Z,17.90
2023-05-04T21:38:59.388Z,17.80
2023-05-04T21:41:27.130Z,17.80
2023-05-04T21:43:54.842Z,17.80
2023-05-04T21:46:22.841Z,17.80
2023-05-04T21:48:52.586Z,17.70
2023-05-04T21:51:21.051Z,17.70
2023-05-04T21:53:48.939Z,17.70
2023-05-04T21:56:16.692Z,17.70
2023-05-04T21:58:44.502Z,17.70
2023-05-04T22:01:17.668Z,17.60
2023-05-04T22:03:45.811Z,17.60
2023-05-04T22:06:14.940Z,17.60
2023-05-04T22:08:42.720Z,17.60
2023-05-04T22:11:10.607Z,17.50
2023-05-04T22:13:38.368Z,17.50
2023-05-04T22:16:08.864Z,17.50
2023-05-04T22:18:36.642Z,17.50
2023-05-04T22:21:04.438Z,17.50
2023-05-04T22:23:33.522Z,17.50
2023-05-04T22:26:01.267Z,17.50
2023-05-04T22:28:29.027Z,17.50
2023-05-04T22:30:56.778Z,17.50
2023-05-04T22:33:24.537Z,17.50
2023-05-04T22:35:52.212Z,17.40
2023-05-04T22:38:19.955Z,17.40
2023-05-04T22:40:50.010Z,17.30
2023-05-04T22:43:17.760Z,17.30
2023-05-04T22:45:45.527Z,17.30
2023-05-04T22:48:14.010Z,17.20
2023-05-04T22:50:42.334Z,17.20
2023-05-04T22:53:10.899Z,17.10
2023-05-04T22:55:38.695Z,17.00
2023-05-04T22:58:07.985Z,16.90
2023-05-04T23:00:35.756Z,16.90
2023-05-04T23:03:03.784Z,16.90
2023-05-04T23:05:31.735Z,16.80
2023-05-04T23:07:59.442Z,16.70
2023-05-04T23:10:27.231Z,16.70
2023-05-04T23:12:54.940Z,16.60
2023-05-04T23:15:25.671Z,16.50
2023-05-04T23:17:53.589Z,16.40
2023-05-04T23:20:21.508Z,16.40
2023-05-04T23:22:49.253Z,16.30
2023-05-04T23:25:17.010Z,16.30
2023-05-04T23:27:45.428Z,16.20
2023-05-04T23:30:13.313Z,16.20
2023-05-04T23:32:42.381Z,16.20
2023-05-04T23:35:10.375Z,16.20
2023-05-04T23:37:38.046Z,16.10
2023-05-04T23:40:06.522Z,16.00
2023-05-04T23:42:34.508Z,16.00
2023-05-04T23:45:02.272Z,16.00
2023-05-04T23:47:30.082Z,15.90
2023-05-04T23:49:59.215Z,15.90
2023-05-04T23:52:26.947Z,15.90
2023-05-04T23:54:54.721Z,15.90
2023-05-04T23:57:22.522Z,15.90
2023-05-04T23:59:50.293Z,15.90
